Houston, United Kingdom
Current Conditions -  °F | °C
As of 4:20 PM on Wednesday 28 Jan 2015 (Local Time) from EGPF Reporting Station
Scattered Clouds Scattered Clouds  
Wind Chill: 24°   Ceiling: Unl
Heat Index: 36°   Visibility: 6mi
Dew Point: 28°   Wind: 22mph
Humidity: 75%   Direction: 260°W
Pressure: 29.21"   Gusts: NA
Location:  55.87°N, 4.55°W
Report Text: EGPF 281620Z AUTO 26019KT 9999 SCT034/// //////CB 02/M02 Q0989
Loading
Personal Weather Stations






























Interactive Weather Map New forecast layout! Learn more

10-Day Weather Forecast

Advertisements
Track Severe Weather on mobile